sensor_id;sensor_type;location;lat;lon;timestamp;pressure;altitude;pressure_sealevel;temperature;humidity
61554;BME280;47425;51.976;5.326;2023-03-03T00:00:46;102348.19;;;4.63;63.78
61554;BME280;47425;51.976;5.326;2023-03-03T00:03:15;102356.00;;;4.65;64.83
61554;BME280;47425;51.976;5.326;2023-03-03T00:05:42;102349.06;;;4.64;64.74
61554;BME280;47425;51.976;5.326;2023-03-03T00:08:09;102343.41;;;4.79;65.23
61554;BME280;47425;51.976;5.326;2023-03-03T00:10:37;102348.03;;;4.59;64.19
61554;BME280;47425;51.976;5.326;2023-03-03T00:13:05;102356.69;;;4.59;64.67
61554;BME280;47425;51.976;5.326;2023-03-03T00:15:31;102351.84;;;4.41;64.70
61554;BME280;47425;51.976;5.326;2023-03-03T00:18:24;102361.78;;;4.26;64.73
61554;BME280;47425;51.976;5.326;2023-03-03T00:20:54;102361.50;;;4.16;64.20
61554;BME280;47425;51.976;5.326;2023-03-03T00:23:26;102368.66;;;4.25;64.84
61554;BME280;47425;51.976;5.326;2023-03-03T00:25:54;102363.19;;;4.16;65.48
61554;BME280;47425;51.976;5.326;2023-03-03T00:28:23;102366.50;;;4.10;66.25
61554;BME280;47425;51.976;5.326;2023-03-03T00:30:51;102362.19;;;4.11;66.23
61554;BME280;47425;51.976;5.326;2023-03-03T00:33:21;102370.56;;;4.02;66.82
61554;BME280;47425;51.976;5.326;2023-03-03T00:35:55;102365.34;;;4.00;65.72
61554;BME280;47425;51.976;5.326;2023-03-03T00:38:21;102360.72;;;3.92;65.23
61554;BME280;47425;51.976;5.326;2023-03-03T00:40:48;102360.72;;;3.92;66.18
61554;BME280;47425;51.976;5.326;2023-03-03T00:43:17;102366.25;;;3.75;65.38
61554;BME280;47425;51.976;5.326;2023-03-03T00:45:45;102364.59;;;3.77;65.76
61554;BME280;47425;51.976;5.326;2023-03-03T00:48:18;102372.34;;;3.77;66.16
61554;BME280;47425;51.976;5.326;2023-03-03T00:50:46;102374.81;;;3.73;66.86
61554;BME280;47425;51.976;5.326;2023-03-03T00:53:14;102366.75;;;3.63;65.81
61554;BME280;47425;51.976;5.326;2023-03-03T00:55:43;102363.59;;;3.72;67.66
61554;BME280;47425;51.976;5.326;2023-03-03T00:58:10;102371.19;;;3.67;66.54
61554;BME280;47425;51.976;5.326;2023-03-03T01:00:41;102363.13;;;3.58;66.04
61554;BME280;47425;51.976;5.326;2023-03-03T01:03:12;102366.28;;;3.49;66.19
61554;BME280;47425;51.976;5.326;2023-03-03T01:05:40;102362.34;;;3.61;67.25
61554;BME280;47425;51.976;5.326;2023-03-03T01:08:07;102362.19;;;3.56;67.37
61554;BME280;47425;51.976;5.326;2023-03-03T01:10:36;102371.91;;;3.63;66.92
61554;BME280;47425;51.976;5.326;2023-03-03T01:13:05;102365.81;;;3.61;66.47
61554;BME280;47425;51.976;5.326;2023-03-03T01:15:32;102377.75;;;3.56;66.54
61554;BME280;47425;51.976;5.326;2023-03-03T01:17:58;102382.03;;;3.56;67.40
61554;BME280;47425;51.976;5.326;2023-03-03T01:20:26;102379.75;;;3.65;67.97
61554;BME280;47425;51.976;5.326;2023-03-03T01:22:53;102377.94;;;3.62;66.62
61554;BME280;47425;51.976;5.326;2023-03-03T01:25:19;102383.84;;;3.58;66.48
61554;BME280;47425;51.976;5.326;2023-03-03T01:27:48;102381.47;;;3.64;67.55
61554;BME280;47425;51.976;5.326;2023-03-03T01:30:16;102378.13;;;3.96;67.12
61554;BME280;47425;51.976;5.326;2023-03-03T01:32:43;102375.00;;;4.06;65.60
61554;BME280;47425;51.976;5.326;2023-03-03T01:35:09;102373.31;;;4.08;65.78
61554;BME280;47425;51.976;5.326;2023-03-03T01:37:37;102385.47;;;3.82;65.17
61554;BME280;47425;51.976;5.326;2023-03-03T01:40:04;102383.28;;;3.94;66.49
61554;BME280;47425;51.976;5.326;2023-03-03T01:42:31;102379.78;;;3.92;66.03
61554;BME280;47425;51.976;5.326;2023-03-03T01:45:16;102396.88;;;3.87;66.03
61554;BME280;47425;51.976;5.326;2023-03-03T01:47:50;102386.56;;;3.89;65.73
61554;BME280;47425;51.976;5.326;2023-03-03T01:50:20;102396.06;;;3.62;66.06
61554;BME280;47425;51.976;5.326;2023-03-03T01:52:51;102386.78;;;3.43;65.90
61554;BME280;47425;51.976;5.326;2023-03-03T01:55:18;102388.25;;;3.35;67.15
61554;BME280;47425;51.976;5.326;2023-03-03T01:57:48;102386.16;;;3.25;67.32
61554;BME280;47425;51.976;5.326;2023-03-03T02:00:20;102395.41;;;3.18;66.96
61554;BME280;47425;51.976;5.326;2023-03-03T02:02:47;102389.31;;;3.16;67.44
61554;BME280;47425;51.976;5.326;2023-03-03T02:05:15;102387.16;;;3.28;67.73
61554;BME280;47425;51.976;5.326;2023-03-03T02:07:42;102388.50;;;3.43;67.84
61554;BME280;47425;51.976;5.326;2023-03-03T02:10:11;102388.75;;;3.50;67.42
61554;BME280;47425;51.976;5.326;2023-03-03T02:12:39;102390.34;;;3.45;67.12
61554;BME280;47425;51.976;5.326;2023-03-03T02:15:14;102388.19;;;3.59;67.89
61554;BME280;47425;51.976;5.326;2023-03-03T02:17:44;102386.72;;;3.67;67.69
61554;BME280;47425;51.976;5.326;2023-03-03T02:20:11;102387.63;;;3.42;67.06
61554;BME280;47425;51.976;5.326;2023-03-03T02:22:43;102381.66;;;3.45;66.95
61554;BME280;47425;51.976;5.326;2023-03-03T02:25:16;102387.09;;;3.52;67.75
61554;BME280;47425;51.976;5.326;2023-03-03T02:27:47;102386.97;;;3.48;66.19
61554;BME280;47425;51.976;5.326;2023-03-03T02:30:15;102382.75;;;3.51;67.19
61554;BME280;47425;51.976;5.326;2023-03-03T02:32:43;102383.44;;;3.46;66.13
61554;BME280;47425;51.976;5.326;2023-03-03T02:35:26;102381.16;;;3.55;67.65
61554;BME280;47425;51.976;5.326;2023-03-03T02:37:53;102381.88;;;3.51;67.74
61554;BME280;47425;51.976;5.326;2023-03-03T02:40:21;102383.16;;;3.64;66.96
61554;BME280;47425;51.976;5.326;2023-03-03T02:42:50;102389.00;;;3.58;66.23
61554;BME280;47425;51.976;5.326;2023-03-03T02:45:18;102374.69;;;3.68;65.74
61554;BME280;47425;51.976;5.326;2023-03-03T02:47:48;102384.22;;;3.43;65.65
61554;BME280;47425;51.976;5.326;2023-03-03T02:50:14;102388.59;;;3.20;66.26
61554;BME280;47425;51.976;5.326;2023-03-03T02:52:41;102381.84;;;3.24;67.00
61554;BME280;47425;51.976;5.326;2023-03-03T02:55:07;102385.06;;;3.18;67.59
61554;BME280;47425;51.976;5.326;2023-03-03T02:57:35;102387.44;;;3.12;66.81
61554;BME280;47425;51.976;5.326;2023-03-03T03:00:05;102386.03;;;2.96;66.47
61554;BME280;47425;51.976;5.326;2023-03-03T03:02:33;102381.94;;;3.02;67.10
61554;BME280;47425;51.976;5.326;2023-03-03T03:04:59;102389.41;;;3.19;67.94
61554;BME280;47425;51.976;5.326;2023-03-03T03:07:27;102371.16;;;3.40;66.65
61554;BME280;47425;51.976;5.326;2023-03-03T03:09:53;102379.47;;;3.57;67.21
61554;BME280;47425;51.976;5.326;2023-03-03T03:12:20;102386.28;;;3.53;65.54
61554;BME280;47425;51.976;5.326;2023-03-03T03:14:51;102390.38;;;3.47;66.65
61554;BME280;47425;51.976;5.326;2023-03-03T03:17:20;102385.44;;;3.29;66.14
61554;BME280;47425;51.976;5.326;2023-03-03T03:19:48;102394.28;;;3.35;66.15
61554;BME280;47425;51.976;5.326;2023-03-03T03:22:14;102388.91;;;3.55;67.61
61554;BME280;47425;51.976;5.326;2023-03-03T03:24:42;102392.34;;;3.54;66.01
61554;BME280;47425;51.976;5.326;2023-03-03T03:27:09;102389.47;;;3.46;66.49
61554;BME280;47425;51.976;5.326;2023-03-03T03:29:35;102395.38;;;3.42;66.21
61554;BME280;47425;51.976;5.326;2023-03-03T03:32:06;102395.34;;;3.41;67.14
61554;BME280;47425;51.976;5.326;2023-03-03T03:34:35;102401.91;;;3.31;66.26
61554;BME280;47425;51.976;5.326;2023-03-03T03:37:03;102390.94;;;3.38;66.04
61554;BME280;47425;51.976;5.326;2023-03-03T03:39:30;102396.56;;;3.26;65.54
61554;BME280;47425;51.976;5.326;2023-03-03T03:41:57;102389.75;;;3.28;66.47
61554;BME280;47425;51.976;5.326;2023-03-03T03:44:24;102392.22;;;3.25;65.76
61554;BME280;47425;51.976;5.326;2023-03-03T03:46:50;102396.31;;;3.18;65.65
61554;BME280;47425;51.976;5.326;2023-03-03T03:49:18;102403.19;;;3.18;65.96
61554;BME280;47425;51.976;5.326;2023-03-03T03:51:48;102400.97;;;3.05;66.20
61554;BME280;47425;51.976;5.326;2023-03-03T03:54:17;102399.50;;;3.11;66.90
61554;BME280;47425;51.976;5.326;2023-03-03T03:56:44;102402.41;;;3.21;67.06
61554;BME280;47425;51.976;5.326;2023-03-03T03:59:10;102402.75;;;3.30;66.74
61554;BME280;47425;51.976;5.326;2023-03-03T04:01:38;102398.19;;;3.23;66.38
61554;BME280;47425;51.976;5.326;2023-03-03T04:04:04;102397.91;;;3.15;66.58
61554;BME280;47425;51.976;5.326;2023-03-03T04:06:32;102401.53;;;3.20;66.55
61554;BME280;47425;51.976;5.326;2023-03-03T04:09:01;102400.53;;;3.16;65.44
61554;BME280;47425;51.976;5.326;2023-03-03T04:11:29;102407.22;;;3.10;66.41
61554;BME280;47425;51.976;5.326;2023-03-03T04:13:55;102395.88;;;3.30;68.45
61554;BME280;47425;51.976;5.326;2023-03-03T04:16:22;102395.81;;;3.55;66.37
61554;BME280;47425;51.976;5.326;2023-03-03T04:18:50;102401.09;;;3.32;65.37
61554;BME280;47425;51.976;5.326;2023-03-03T04:21:16;102399.81;;;3.21;66.46
61554;BME280;47425;51.976;5.326;2023-03-03T04:23:44;102399.44;;;3.10;65.94
61554;BME280;47425;51.976;5.326;2023-03-03T04:26:12;102405.44;;;3.09;66.89
61554;BME280;47425;51.976;5.326;2023-03-03T04:28:42;102404.53;;;3.07;67.14
61554;BME280;47425;51.976;5.326;2023-03-03T04:31:09;102409.50;;;3.26;66.95
61554;BME280;47425;51.976;5.326;2023-03-03T04:33:35;102407.81;;;3.27;66.69
61554;BME280;47425;51.976;5.326;2023-03-03T04:36:04;102409.19;;;3.41;66.95
61554;BME280;47425;51.976;5.326;2023-03-03T04:38:31;102410.00;;;3.40;66.03
61554;BME280;47425;51.976;5.326;2023-03-03T04:40:58;102408.91;;;3.33;66.24
61554;BME280;47425;51.976;5.326;2023-03-03T04:43:28;102403.38;;;3.23;66.00
61554;BME280;47425;51.976;5.326;2023-03-03T04:45:56;102403.84;;;3.36;66.88
61554;BME280;47425;51.976;5.326;2023-03-03T04:48:23;102408.59;;;3.50;66.34
61554;BME280;47425;51.976;5.326;2023-03-03T04:50:50;102411.28;;;3.53;65.86
61554;BME280;47425;51.976;5.326;2023-03-03T04:53:18;102397.78;;;3.36;65.93
61554;BME280;47425;51.976;5.326;2023-03-03T04:55:44;102402.41;;;3.21;66.96
61554;BME280;47425;51.976;5.326;2023-03-03T04:58:11;102407.91;;;3.30;66.95
61554;BME280;47425;51.976;5.326;2023-03-03T05:00:40;102411.19;;;3.24;66.29
61554;BME280;47425;51.976;5.326;2023-03-03T05:03:09;102411.13;;;3.23;66.22
61554;BME280;47425;51.976;5.326;2023-03-03T05:05:37;102410.91;;;3.16;66.58
61554;BME280;47425;51.976;5.326;2023-03-03T05:08:05;102414.16;;;3.35;67.89
61554;BME280;47425;51.976;5.326;2023-03-03T05:10:31;102415.28;;;3.43;67.86
61554;BME280;47425;51.976;5.326;2023-03-03T05:12:59;102427.78;;;3.55;67.52
61554;BME280;47425;51.976;5.326;2023-03-03T05:15:25;102420.41;;;3.67;66.89
61554;BME280;47425;51.976;5.326;2023-03-03T05:17:53;102414.41;;;3.68;65.74
61554;BME280;47425;51.976;5.326;2023-03-03T05:20:22;102418.72;;;3.68;65.94
61554;BME280;47425;51.976;5.326;2023-03-03T05:22:48;102420.47;;;3.69;65.55
61554;BME280;47425;51.976;5.326;2023-03-03T05:25:15;102421.31;;;3.68;66.97
61554;BME280;47425;51.976;5.326;2023-03-03T05:27:41;102428.94;;;3.91;66.47
61554;BME280;47425;51.976;5.326;2023-03-03T05:30:30;102422.09;;;4.20;65.49
61554;BME280;47425;51.976;5.326;2023-03-03T05:32:59;102425.78;;;3.99;64.41
61554;BME280;47425;51.976;5.326;2023-03-03T05:35:25;102425.38;;;4.14;65.37
61554;BME280;47425;51.976;5.326;2023-03-03T05:37:52;102419.66;;;4.25;64.50
61554;BME280;47425;51.976;5.326;2023-03-03T05:40:20;102426.16;;;4.12;63.95
61554;BME280;47425;51.976;5.326;2023-03-03T05:42:46;102426.38;;;4.18;65.21
61554;BME280;47425;51.976;5.326;2023-03-03T05:45:13;102427.44;;;4.53;64.83
61554;BME280;47425;51.976;5.326;2023-03-03T05:47:39;102424.22;;;4.61;64.94
61554;BME280;47425;51.976;5.326;2023-03-03T05:50:09;102429.88;;;4.47;63.46
61554;BME280;47425;51.976;5.326;2023-03-03T05:52:36;102417.81;;;4.20;63.82
61554;BME280;47425;51.976;5.326;2023-03-03T05:55:02;102427.53;;;4.28;64.89
61554;BME280;47425;51.976;5.326;2023-03-03T05:57:30;102426.00;;;4.34;64.17
61554;BME280;47425;51.976;5.326;2023-03-03T05:59:56;102423.78;;;4.18;64.43
61554;BME280;47425;51.976;5.326;2023-03-03T06:02:23;102422.47;;;4.03;64.19
61554;BME280;47425;51.976;5.326;2023-03-03T06:04:50;102429.97;;;3.96;64.76
61554;BME280;47425;51.976;5.326;2023-03-03T06:07:19;102412.38;;;3.85;65.87
61554;BME280;47425;51.976;5.326;2023-03-03T06:09:45;102432.53;;;3.94;65.01
61554;BME280;47425;51.976;5.326;2023-03-03T06:12:12;102434.91;;;4.43;66.83
61554;BME280;47425;51.976;5.326;2023-03-03T06:14:38;102430.81;;;4.51;64.90
61554;BME280;47425;51.976;5.326;2023-03-03T06:17:06;102434.53;;;4.30;65.06
61554;BME280;47425;51.976;5.326;2023-03-03T06:19:32;102435.59;;;4.37;65.50
61554;BME280;47425;51.976;5.326;2023-03-03T06:22:00;102452.97;;;4.40;65.81
61554;BME280;47425;51.976;5.326;2023-03-03T06:24:28;102454.47;;;4.60;65.35
61554;BME280;47425;51.976;5.326;2023-03-03T06:26:55;102449.09;;;4.54;64.38
61554;BME280;47425;51.976;5.326;2023-03-03T06:29:22;102460.03;;;4.44;64.80
61554;BME280;47425;51.976;5.326;2023-03-03T06:31:48;102464.09;;;4.35;64.44
61554;BME280;47425;51.976;5.326;2023-03-03T06:34:16;102460.84;;;4.43;65.10
61554;BME280;47425;51.976;5.326;2023-03-03T06:36:42;102457.09;;;4.33;64.84
61554;BME280;47425;51.976;5.326;2023-03-03T06:39:09;102466.78;;;4.39;65.86
61554;BME280;47425;51.976;5.326;2023-03-03T06:41:38;102466.56;;;4.32;65.73
61554;BME280;47425;51.976;5.326;2023-03-03T06:44:05;102464.63;;;4.25;65.66
61554;BME280;47425;51.976;5.326;2023-03-03T06:46:31;102463.97;;;4.05;65.85
61554;BME280;47425;51.976;5.326;2023-03-03T06:48:57;102475.94;;;4.01;66.32
61554;BME280;47425;51.976;5.326;2023-03-03T06:51:26;102475.81;;;3.97;66.44
61554;BME280;47425;51.976;5.326;2023-03-03T06:53:57;102474.41;;;4.07;66.55
61554;BME280;47425;51.976;5.326;2023-03-03T06:56:25;102476.22;;;4.09;66.91
61554;BME280;47425;51.976;5.326;2023-03-03T06:58:54;102481.78;;;4.22;66.78
61554;BME280;47425;51.976;5.326;2023-03-03T07:01:21;102479.75;;;4.11;66.19
61554;BME280;47425;51.976;5.326;2023-03-03T07:03:48;102487.19;;;4.28;67.42
61554;BME280;47425;51.976;5.326;2023-03-03T07:06:15;102487.16;;;4.55;66.82
61554;BME280;47425;51.976;5.326;2023-03-03T07:08:44;102485.88;;;4.69;65.78
61554;BME280;47425;51.976;5.326;2023-03-03T07:11:11;102493.22;;;4.54;65.22
61554;BME280;47425;51.976;5.326;2023-03-03T07:13:41;102501.38;;;4.39;65.11
61554;BME280;47425;51.976;5.326;2023-03-03T07:16:12;102492.41;;;4.29;65.81
61554;BME280;47425;51.976;5.326;2023-03-03T07:18:40;102502.34;;;4.15;66.17
61554;BME280;47425;51.976;5.326;2023-03-03T07:21:16;102504.91;;;4.41;67.07
61554;BME280;47425;51.976;5.326;2023-03-03T07:23:44;102508.44;;;4.43;65.98
61554;BME280;47425;51.976;5.326;2023-03-03T07:26:11;102504.25;;;4.48;66.35
61554;BME280;47425;51.976;5.326;2023-03-03T07:28:39;102509.34;;;4.45;66.44
61554;BME280;47425;51.976;5.326;2023-03-03T07:31:19;102508.38;;;4.42;66.62
61554;BME280;47425;51.976;5.326;2023-03-03T07:33:52;102507.72;;;4.22;66.71
61554;BME280;47425;51.976;5.326;2023-03-03T07:36:21;102513.38;;;4.35;67.21
61554;BME280;47425;51.976;5.326;2023-03-03T07:38:52;102511.38;;;4.54;67.53
61554;BME280;47425;51.976;5.326;2023-03-03T07:41:20;102514.53;;;4.45;66.42
61554;BME280;47425;51.976;5.326;2023-03-03T07:43:47;102512.13;;;4.24;66.84
61554;BME280;47425;51.976;5.326;2023-03-03T07:46:24;102514.06;;;4.30;67.15
61554;BME280;47425;51.976;5.326;2023-03-03T07:48:53;102509.59;;;4.53;67.07
61554;BME280;47425;51.976;5.326;2023-03-03T07:51:20;102516.56;;;4.54;66.93
61554;BME280;47425;51.976;5.326;2023-03-03T07:53:49;102513.22;;;4.58;67.29
61554;BME280;47425;51.976;5.326;2023-03-03T07:56:21;102523.69;;;4.61;66.83
61554;BME280;47425;51.976;5.326;2023-03-03T07:58:52;102524.34;;;4.54;66.73
61554;BME280;47425;51.976;5.326;2023-03-03T08:01:28;102531.41;;;4.58;66.69
61554;BME280;47425;51.976;5.326;2023-03-03T08:06:41;102543.94;;;4.46;67.61
61554;BME280;47425;51.976;5.326;2023-03-03T08:09:21;102548.53;;;4.53;67.09
61554;BME280;47425;51.976;5.326;2023-03-03T08:11:50;102545.16;;;4.56;66.91
61554;BME280;47425;51.976;5.326;2023-03-03T08:14:21;102549.56;;;4.58;67.05
61554;BME280;47425;51.976;5.326;2023-03-03T08:16:53;102557.94;;;4.77;66.81
61554;BME280;47425;51.976;5.326;2023-03-03T08:19:20;102555.81;;;4.65;66.19
61554;BME280;47425;51.976;5.326;2023-03-03T08:21:48;102561.88;;;4.65;67.48
61554;BME280;47425;51.976;5.326;2023-03-03T08:24:14;102555.53;;;4.56;67.14
61554;BME280;47425;51.976;5.326;2023-03-03T08:26:40;102560.38;;;4.45;67.57
61554;BME280;47425;51.976;5.326;2023-03-03T08:29:08;102564.63;;;4.70;67.88
61554;BME280;47425;51.976;5.326;2023-03-03T08:31:37;102557.72;;;4.70;67.24
61554;BME280;47425;51.976;5.326;2023-03-03T08:34:05;102558.97;;;4.83;67.17
61554;BME280;47425;51.976;5.326;2023-03-03T08:36:31;102567.78;;;4.88;67.23
61554;BME280;47425;51.976;5.326;2023-03-03T08:38:57;102568.13;;;4.99;66.76
61554;BME280;47425;51.976;5.326;2023-03-03T08:41:25;102569.84;;;4.99;66.19
61554;BME280;47425;51.976;5.326;2023-03-03T08:43:52;102576.75;;;4.98;67.20
61554;BME280;47425;51.976;5.326;2023-03-03T08:46:18;102573.13;;;4.93;66.72
61554;BME280;47425;51.976;5.326;2023-03-03T08:48:46;102572.34;;;5.25;67.49
61554;BME280;47425;51.976;5.326;2023-03-03T08:51:13;102576.03;;;5.33;65.75
61554;BME280;47425;51.976;5.326;2023-03-03T08:53:40;102574.84;;;5.21;66.21
61554;BME280;47425;51.976;5.326;2023-03-03T08:56:06;102585.00;;;5.14;65.69
61554;BME280;47425;51.976;5.326;2023-03-03T08:58:35;102573.97;;;5.21;66.05
61554;BME280;47425;51.976;5.326;2023-03-03T09:01:03;102573.31;;;5.28;66.89
61554;BME280;47425;51.976;5.326;2023-03-03T09:03:30;102574.53;;;5.41;65.62
61554;BME280;47425;51.976;5.326;2023-03-03T09:05:58;102568.63;;;5.45;66.36
61554;BME280;47425;51.976;5.326;2023-03-03T09:08:26;102571.44;;;5.54;65.57
61554;BME280;47425;51.976;5.326;2023-03-03T09:10:52;102574.13;;;5.56;65.50
61554;BME280;47425;51.976;5.326;2023-03-03T09:13:18;102572.66;;;5.66;65.29
61554;BME280;47425;51.976;5.326;2023-03-03T09:15:46;102571.63;;;5.61;65.71
61554;BME280;47425;51.976;5.326;2023-03-03T09:18:14;102572.13;;;5.78;65.35
61554;BME280;47425;51.976;5.326;2023-03-03T09:20:42;102574.00;;;5.83;65.34
61554;BME280;47425;51.976;5.326;2023-03-03T09:23:31;102561.25;;;5.93;64.84
61554;BME280;47425;51.976;5.326;2023-03-03T09:26:16;102578.34;;;5.84;64.59
61554;BME280;47425;51.976;5.326;2023-03-03T09:28:44;102578.78;;;6.00;65.04
61554;BME280;47425;51.976;5.326;2023-03-03T09:31:16;102575.84;;;5.87;64.36
61554;BME280;47425;51.976;5.326;2023-03-03T09:33:48;102574.50;;;5.70;64.79
61554;BME280;47425;51.976;5.326;2023-03-03T09:36:18;102575.22;;;5.64;64.10
61554;BME280;47425;51.976;5.326;2023-03-03T09:38:47;102575.22;;;5.64;64.96
61554;BME280;47425;51.976;5.326;2023-03-03T09:41:20;102574.56;;;5.73;64.51
61554;BME280;47425;51.976;5.326;2023-03-03T09:43:58;102575.44;;;6.04;64.84
61554;BME280;47425;51.976;5.326;2023-03-03T09:46:29;102579.72;;;6.02;63.54
61554;BME280;47425;51.976;5.326;2023-03-03T09:49:01;102576.16;;;5.98;64.50
61554;BME280;47425;51.976;5.326;2023-03-03T09:51:56;102579.94;;;6.10;64.40
61554;BME280;47425;51.976;5.326;2023-03-03T09:54:33;102581.28;;;6.29;63.92
61554;BME280;47425;51.976;5.326;2023-03-03T09:57:04;102585.63;;;6.30;63.42
61554;BME280;47425;51.976;5.326;2023-03-03T09:59:39;102588.03;;;6.55;64.31
61554;BME280;47425;51.976;5.326;2023-03-03T10:02:15;102585.03;;;6.77;62.51
61554;BME280;47425;51.976;5.326;2023-03-03T10:04:55;102593.38;;;6.98;62.10
61554;BME280;47425;51.976;5.326;2023-03-03T10:07:27;102594.16;;;6.96;61.39
61554;BME280;47425;51.976;5.326;2023-03-03T10:13:00;102587.84;;;6.49;61.71
61554;BME280;47425;51.976;5.326;2023-03-03T10:15:37;102585.97;;;6.42;61.80
61554;BME280;47425;51.976;5.326;2023-03-03T10:18:11;102588.00;;;6.54;61.74
61554;BME280;47425;51.976;5.326;2023-03-03T10:20:44;102592.00;;;6.78;62.63
61554;BME280;47425;51.976;5.326;2023-03-03T10:23:16;102592.97;;;6.81;61.28
61554;BME280;47425;51.976;5.326;2023-03-03T10:25:50;102592.16;;;6.84;61.40
61554;BME280;47425;51.976;5.326;2023-03-03T10:28:24;102586.06;;;6.83;61.34
61554;BME280;47425;51.976;5.326;2023-03-03T10:30:59;102591.66;;;7.00;61.19
61554;BME280;47425;51.976;5.326;2023-03-03T10:33:31;102593.81;;;6.82;60.68
61554;BME280;47425;51.976;5.326;2023-03-03T10:36:07;102587.75;;;6.81;61.02
61554;BME280;47425;51.976;5.326;2023-03-03T10:38:43;102590.44;;;6.86;60.77
61554;BME280;47425;51.976;5.326;2023-03-03T10:41:16;102585.84;;;6.74;60.95
61554;BME280;47425;51.976;5.326;2023-03-03T10:43:53;102599.59;;;7.05;61.08
61554;BME280;47425;51.976;5.326;2023-03-03T10:46:28;102591.84;;;7.08;60.44
61554;BME280;47425;51.976;5.326;2023-03-03T10:49:03;102590.22;;;7.13;60.18
61554;BME280;47425;51.976;5.326;2023-03-03T10:51:36;102587.91;;;7.27;59.33
61554;BME280;47425;51.976;5.326;2023-03-03T10:54:08;102587.13;;;7.33;59.68
61554;BME280;47425;51.976;5.326;2023-03-03T10:56:43;102596.00;;;7.41;59.78
61554;BME280;47425;51.976;5.326;2023-03-03T10:59:22;102588.09;;;7.36;58.69
61554;BME280;47425;51.976;5.326;2023-03-03T11:02:00;102588.75;;;7.28;58.14
61554;BME280;47425;51.976;5.326;2023-03-03T11:04:37;102590.66;;;7.33;59.29
61554;BME280;47425;51.976;5.326;2023-03-03T11:07:10;102582.00;;;7.36;58.31
61554;BME280;47425;51.976;5.326;2023-03-03T11:09:46;102589.94;;;7.42;58.62
61554;BME280;47425;51.976;5.326;2023-03-03T11:12:23;102587.28;;;7.39;57.86
61554;BME280;47425;51.976;5.326;2023-03-03T11:14:59;102584.72;;;7.42;58.01
61554;BME280;47425;51.976;5.326;2023-03-03T11:17:31;102577.50;;;7.71;58.44
61554;BME280;47425;51.976;5.326;2023-03-03T11:20:04;102576.94;;;7.88;57.50
61554;BME280;47425;51.976;5.326;2023-03-03T11:22:38;102572.50;;;7.82;57.15
61554;BME280;47425;51.976;5.326;2023-03-03T11:25:12;102570.97;;;7.94;56.87
61554;BME280;47425;51.976;5.326;2023-03-03T11:30:56;102567.84;;;8.15;56.51
61554;BME280;47425;51.976;5.326;2023-03-03T11:33:27;102569.00;;;8.32;56.73
61554;BME280;47425;51.976;5.326;2023-03-03T11:36:02;102570.91;;;8.41;54.80
61554;BME280;47425;51.976;5.326;2023-03-03T11:38:37;102571.91;;;8.46;55.45
61554;BME280;47425;51.976;5.326;2023-03-03T11:41:10;102564.72;;;8.36;54.54
61554;BME280;47425;51.976;5.326;2023-03-03T11:43:44;102567.78;;;8.10;54.21
61554;BME280;47425;51.976;5.326;2023-03-03T11:46:14;102560.59;;;7.98;55.37
61554;BME280;47425;51.976;5.326;2023-03-03T11:48:43;102557.97;;;7.97;54.28
61554;BME280;47425;51.976;5.326;2023-03-03T11:51:13;102553.97;;;8.16;54.77
61554;BME280;47425;51.976;5.326;2023-03-03T11:53:48;102554.91;;;8.21;53.69
61554;BME280;47425;51.976;5.326;2023-03-03T11:56:19;102547.16;;;8.26;53.27
61554;BME280;47425;51.976;5.326;2023-03-03T11:59:20;102549.28;;;8.47;54.02
61554;BME280;47425;51.976;5.326;2023-03-03T12:01:54;102546.25;;;8.77;54.26
61554;BME280;47425;51.976;5.326;2023-03-03T12:07:13;102546.97;;;8.65;51.71
61554;BME280;47425;51.976;5.326;2023-03-03T12:09:45;102544.34;;;8.65;51.85
61554;BME280;47425;51.976;5.326;2023-03-03T12:12:17;102540.25;;;8.83;51.30
61554;BME280;47425;51.976;5.326;2023-03-03T12:14:54;102535.31;;;9.04;50.88
61554;BME280;47425;51.976;5.326;2023-03-03T12:17:30;102542.28;;;9.04;49.96
61554;BME280;47425;51.976;5.326;2023-03-03T12:20:01;102535.66;;;9.31;50.61
61554;BME280;47425;51.976;5.326;2023-03-03T12:22:31;102525.34;;;9.45;50.02
61554;BME280;47425;51.976;5.326;2023-03-03T12:25:04;102532.22;;;9.35;48.91
61554;BME280;47425;51.976;5.326;2023-03-03T12:27:37;102515.59;;;9.31;49.42
61554;BME280;47425;51.976;5.326;2023-03-03T12:30:11;102514.69;;;9.28;49.69
61554;BME280;47425;51.976;5.326;2023-03-03T12:33:09;102519.97;;;9.31;49.57
61554;BME280;47425;51.976;5.326;2023-03-03T12:35:40;102511.34;;;9.43;49.35
61554;BME280;47425;51.976;5.326;2023-03-03T12:38:10;102511.44;;;9.49;50.27
61554;BME280;47425;51.976;5.326;2023-03-03T12:40:42;102504.75;;;9.77;49.39
61554;BME280;47425;51.976;5.326;2023-03-03T12:43:25;102514.34;;;9.75;49.28
61554;BME280;47425;51.976;5.326;2023-03-03T12:46:00;102516.78;;;9.58;48.06
61554;BME280;47425;51.976;5.326;2023-03-03T12:48:37;102511.41;;;9.44;49.08
61554;BME280;47425;51.976;5.326;2023-03-03T12:51:09;102509.66;;;9.46;49.11
61554;BME280;47425;51.976;5.326;2023-03-03T12:53:42;102512.41;;;9.60;49.01
61554;BME280;47425;51.976;5.326;2023-03-03T12:56:12;102500.13;;;9.51;48.39
61554;BME280;47425;51.976;5.326;2023-03-03T12:58:46;102501.88;;;9.51;47.59
61554;BME280;47425;51.976;5.326;2023-03-03T13:01:24;102502.84;;;9.59;47.51
61554;BME280;47425;51.976;5.326;2023-03-03T13:04:00;102504.56;;;9.60;48.06
61554;BME280;47425;51.976;5.326;2023-03-03T13:06:51;102505.47;;;9.59;47.53
61554;BME280;47425;51.976;5.326;2023-03-03T13:09:26;102498.56;;;9.69;47.92
61554;BME280;47425;51.976;5.326;2023-03-03T13:11:59;102493.34;;;9.69;47.79
61554;BME280;47425;51.976;5.326;2023-03-03T13:14:32;102496.22;;;9.95;47.40
61554;BME280;47425;51.976;5.326;2023-03-03T13:17:07;102492.78;;;10.04;46.10
61554;BME280;47425;51.976;5.326;2023-03-03T13:19:43;102494.63;;;10.16;45.42
61554;BME280;47425;51.976;5.326;2023-03-03T13:22:14;102493.72;;;10.12;43.85
61554;BME280;47425;51.976;5.326;2023-03-03T13:24:44;102489.41;;;10.20;45.11
61554;BME280;47425;51.976;5.326;2023-03-03T13:27:18;102495.63;;;10.30;45.17